Terminal Aerodrome Forecast
Issued by NWS

Home | Current Version | Previous Version | Text Only | Print | Product List | Glossary On
Versions: 1 2 3 4 5 6 7 8 9 10 11 12 13 14 15 16 17 18 19 20 21 22 23 24 25 26 27 28 29 30 31
000
FTUS45 KSLC 201120
TAF36U
TAF
K36U 201120Z 2012/2112 VRB04KT P6SM -SHRA BKN050 OVC080
     FM201400 21009KT P6SM SCT060 BKN110
     FM210200 VRB04KT P6SM BKN100=

USA.gov is the U.S. government's official web portal to all federal, state and local government web resources and services.